createdAt,value
2023-03-21T00:00:38.448Z,63.69
2023-03-21T00:03:05.197Z,63.34
2023-03-21T00:05:31.901Z,62.89
2023-03-21T00:08:00.420Z,63.02
2023-03-21T00:10:39.489Z,63.14
2023-03-21T00:13:13.259Z,63.33
2023-03-21T00:16:01.971Z,63.34
2023-03-21T00:18:30.921Z,63.22
2023-03-21T00:21:35.336Z,63.09
2023-03-21T00:23:48.847Z,62.82
2023-03-21T00:26:15.542Z,62.37
2023-03-21T00:28:42.625Z,61.72
2023-03-21T00:31:09.455Z,62.12
2023-03-21T00:33:37.208Z,62.46
2023-03-21T00:36:05.822Z,62.65
2023-03-21T00:38:32.464Z,63.15
2023-03-21T00:41:04.669Z,62.79
2023-03-21T00:43:34.349Z,63.06
2023-03-21T00:46:00.989Z,62.93
2023-03-21T00:48:27.776Z,63.04
2023-03-21T00:50:55.446Z,62.77
2023-03-21T00:53:22.058Z,62.40
2023-03-21T00:55:48.772Z,61.76
2023-03-21T00:58:16.059Z,61.43
2023-03-21T01:00:42.737Z,61.42
2023-03-21T01:03:23.144Z,61.18
2023-03-21T01:06:07.147Z,61.42
2023-03-21T01:08:51.344Z,61.05
2023-03-21T01:11:20.461Z,60.31
2023-03-21T01:13:54.807Z,60.67
2023-03-21T01:16:26.269Z,60.63
2023-03-21T01:18:53.114Z,60.97
2023-03-21T01:21:19.898Z,60.25
2023-03-21T01:23:46.644Z,60.38
2023-03-21T01:26:13.495Z,60.47
2023-03-21T01:28:40.840Z,60.79
2023-03-21T01:31:07.627Z,60.51
2023-03-21T01:33:34.427Z,60.68
2023-03-21T01:36:12.274Z,60.34
2023-03-21T01:38:40.932Z,60.29
2023-03-21T01:41:18.642Z,60.70
2023-03-21T01:43:46.070Z,60.35
2023-03-21T01:46:54.053Z,59.60
2023-03-21T01:49:34.348Z,59.61
2023-03-21T01:52:11.417Z,59.87
2023-03-21T01:54:39.788Z,60.22
2023-03-21T01:57:09.981Z,59.99
2023-03-21T01:59:50.140Z,60.48
2023-03-21T02:02:23.328Z,60.83
2023-03-21T02:04:55.930Z,60.73
2023-03-21T02:07:26.201Z,60.74
2023-03-21T02:09:52.795Z,60.29
2023-03-21T02:12:19.713Z,60.51
2023-03-21T02:14:47.364Z,60.03
2023-03-21T02:17:19.924Z,60.45
2023-03-21T02:20:15.171Z,60.23
2023-03-21T02:22:51.309Z,60.51
2023-03-21T02:25:36.737Z,60.16
2023-03-21T02:28:14.548Z,59.80
2023-03-21T02:31:04.482Z,60.25
2023-03-21T02:33:42.554Z,59.98
2023-03-21T02:36:18.328Z,60.45
2023-03-21T02:38:52.984Z,60.82
2023-03-21T02:41:40.523Z,60.96
2023-03-21T02:44:29.083Z,60.61
2023-03-21T02:47:05.338Z,60.98
2023-03-21T02:50:16.136Z,60.76
2023-03-21T02:52:42.940Z,61.23
2023-03-21T02:55:30.602Z,61.43
2023-03-21T02:58:06.858Z,61.08
2023-03-21T03:00:39.064Z,61.29
2023-03-21T03:03:10.089Z,61.43
2023-03-21T03:05:53.966Z,61.04
2023-03-21T03:09:08.555Z,61.02
2023-03-21T03:11:39.315Z,60.75
2023-03-21T03:14:53.077Z,61.34
2023-03-21T03:17:21.376Z,61.36
2023-03-21T03:20:21.860Z,61.47
2023-03-21T03:23:10.400Z,61.45
2023-03-21T03:25:43.869Z,61.68
2023-03-21T03:28:12.333Z,61.12
2023-03-21T03:30:51.247Z,61.43
2023-03-21T03:33:26.081Z,61.85
2023-03-21T03:36:04.455Z,61.81
2023-03-21T03:38:32.252Z,61.45
2023-03-21T03:40:59.427Z,61.51
2023-03-21T03:43:56.552Z,61.71
2023-03-21T03:46:36.054Z,62.44
2023-03-21T03:49:05.829Z,61.97
2023-03-21T03:52:03.120Z,61.92
2023-03-21T03:54:35.991Z,62.11
2023-03-21T03:57:04.509Z,62.29
2023-03-21T03:59:31.162Z,62.10
2023-03-21T04:01:57.855Z,61.56
2023-03-21T04:04:29.013Z,62.08
2023-03-21T04:06:57.573Z,62.22
2023-03-21T04:09:40.881Z,62.12
2023-03-21T04:12:10.034Z,62.37
2023-03-21T04:14:44.550Z,61.31
2023-03-21T04:17:12.624Z,62.21
2023-03-21T04:19:39.341Z,62.18
2023-03-21T04:22:06.200Z,62.15
2023-03-21T04:24:33.949Z,63.01
2023-03-21T04:27:00.976Z,62.61
2023-03-21T04:29:29.884Z,62.20
2023-03-21T04:31:56.657Z,62.39
2023-03-21T04:34:24.133Z,62.78
2023-03-21T04:36:50.976Z,63.22
2023-03-21T04:39:17.718Z,63.68
2023-03-21T04:41:45.488Z,63.68
2023-03-21T04:44:12.760Z,63.44
2023-03-21T04:46:39.659Z,63.31
2023-03-21T04:49:07.131Z,64.07
2023-03-21T04:51:34.124Z,64.37
2023-03-21T04:54:00.864Z,64.50
2023-03-21T04:56:32.513Z,64.13
2023-03-21T04:59:02.933Z,63.84
2023-03-21T05:01:32.758Z,63.81
2023-03-21T05:04:00.072Z,63.91
2023-03-21T05:06:27.899Z,64.13
2023-03-21T05:08:56.751Z,63.94
2023-03-21T05:11:23.380Z,64.12
2023-03-21T05:13:50.048Z,64.22
2023-03-21T05:16:16.759Z,63.66
2023-03-21T05:18:43.419Z,64.14
2023-03-21T05:21:13.532Z,63.85
2023-03-21T05:23:40.171Z,63.41
2023-03-21T05:26:10.128Z,63.39
2023-03-21T05:28:36.976Z,63.96
2023-03-21T05:31:04.467Z,63.25
2023-03-21T05:33:34.131Z,63.61
2023-03-21T05:36:04.201Z,64.01
2023-03-21T05:38:31.289Z,62.25
2023-03-21T05:40:57.922Z,60.08
2023-03-21T05:43:24.568Z,59.50
2023-03-21T05:45:51.307Z,58.77
2023-03-21T05:48:18.282Z,58.05
2023-03-21T05:50:45.029Z,57.84
2023-03-21T05:56:44.962Z,58.55
2023-03-21T05:59:11.586Z,58.08
2023-03-21T06:01:38.328Z,58.60
2023-03-21T06:04:05.058Z,59.73
2023-03-21T06:06:31.754Z,60.39
2023-03-21T06:08:58.410Z,60.89
2023-03-21T06:11:27.325Z,60.44
2023-03-21T06:13:54.073Z,59.88
2023-03-21T06:16:20.850Z,59.05
2023-03-21T06:18:47.607Z,59.19
2023-03-21T06:21:14.264Z,58.74
2023-03-21T06:23:40.979Z,57.86
2023-03-21T06:26:07.737Z,56.22
2023-03-21T06:28:34.450Z,56.25
2023-03-21T06:31:01.288Z,54.67
2023-03-21T06:33:27.987Z,55.04
2023-03-21T06:35:55.690Z,54.14
2023-03-21T06:38:22.428Z,54.09
2023-03-21T06:40:49.154Z,53.76
2023-03-21T06:43:18.972Z,53.28
2023-03-21T06:45:45.603Z,54.05
2023-03-21T06:48:12.439Z,52.63
2023-03-21T06:50:39.103Z,51.79
2023-03-21T06:53:06.064Z,51.64
2023-03-21T06:55:32.722Z,51.28
2023-03-21T06:57:59.455Z,50.56
2023-03-21T07:00:26.594Z,51.17
2023-03-21T07:02:53.995Z,49.53
2023-03-21T07:05:20.717Z,49.70
2023-03-21T07:07:48.591Z,49.06
2023-03-21T07:10:15.297Z,47.63
2023-03-21T07:12:42.072Z,47.42
2023-03-21T07:15:09.379Z,47.59
2023-03-21T07:17:36.138Z,46.99
2023-03-21T07:20:06.477Z,46.37
2023-03-21T07:22:33.202Z,44.66
2023-03-21T07:25:05.223Z,46.09
2023-03-21T07:27:32.577Z,44.10
2023-03-21T07:29:59.294Z,44.34
2023-03-21T07:32:29.971Z,43.62
2023-03-21T07:34:56.775Z,43.45
2023-03-21T07:37:24.042Z,41.87
2023-03-21T07:39:51.519Z,40.40
2023-03-21T07:42:18.525Z,41.20
2023-03-21T07:44:45.187Z,41.05
2023-03-21T07:47:11.849Z,40.49
2023-03-21T07:49:38.534Z,39.49
2023-03-21T07:52:05.551Z,40.46
2023-03-21T07:54:32.175Z,38.21
2023-03-21T07:56:58.892Z,36.51
2023-03-21T07:59:25.799Z,35.56
2023-03-21T08:01:52.597Z,35.03
2023-03-21T08:04:19.334Z,33.43
2023-03-21T08:06:46.014Z,33.59
2023-03-21T08:09:12.828Z,32.41
2023-03-21T08:11:40.356Z,31.87
2023-03-21T08:14:06.969Z,32.51
2023-03-21T08:16:33.699Z,31.85
2023-03-21T08:19:00.443Z,32.26
2023-03-21T08:21:27.619Z,33.66
2023-03-21T08:23:54.470Z,33.55
2023-03-21T08:26:21.491Z,32.13
2023-03-21T08:28:48.155Z,32.28
2023-03-21T08:31:15.444Z,30.80
2023-03-21T08:33:42.189Z,29.60
2023-03-21T08:36:09.243Z,28.03
2023-03-21T08:38:36.088Z,29.15
2023-03-21T08:41:02.777Z,30.06
2023-03-21T08:43:29.648Z,29.26
2023-03-21T08:45:56.612Z,28.21
2023-03-21T08:48:23.348Z,28.44
2023-03-21T08:50:50.362Z,27.44
2023-03-21T08:53:17.045Z,27.15
2023-03-21T08:55:44.495Z,25.97
2023-03-21T08:58:11.333Z,26.00
2023-03-21T09:00:38.085Z,27.63
2023-03-21T09:03:05.199Z,26.45
2023-03-21T09:05:32.051Z,25.67
2023-03-21T09:08:01.624Z,26.88
2023-03-21T09:10:28.389Z,26.21
2023-03-21T09:12:55.800Z,26.94
2023-03-21T09:15:28.878Z,27.60
2023-03-21T09:17:58.476Z,27.27
2023-03-21T09:20:33.101Z,27.61
2023-03-21T09:23:01.085Z,28.76
2023-03-21T09:25:31.371Z,27.60
2023-03-21T09:27:59.116Z,26.67
2023-03-21T09:30:26.548Z,25.79
2023-03-21T09:32:55.679Z,25.40
2023-03-21T09:35:22.742Z,25.61
2023-03-21T09:37:50.082Z,25.83
2023-03-21T09:40:41.029Z,25.00
2023-03-21T09:43:21.962Z,26.22
2023-03-21T09:45:54.971Z,25.40
2023-03-21T09:48:54.432Z,24.51
2023-03-21T09:51:23.872Z,24.89
2023-03-21T09:53:50.770Z,24.59
2023-03-21T09:56:17.675Z,24.85
2023-03-21T09:58:53.313Z,25.61
2023-03-21T10:01:28.524Z,25.92
2023-03-21T10:04:00.619Z,26.02
2023-03-21T10:06:30.946Z,26.80
2023-03-21T10:09:24.620Z,25.83
2023-03-21T10:11:56.352Z,25.47
2023-03-21T10:14:29.071Z,27.42
2023-03-21T10:17:17.552Z,26.72
2023-03-21T10:19:46.627Z,26.88
2023-03-21T10:22:13.299Z,26.80
2023-03-21T10:24:39.934Z,25.63
2023-03-21T10:27:06.674Z,26.42
2023-03-21T10:29:53.389Z,26.78
2023-03-21T10:32:22.874Z,26.88
2023-03-21T10:34:51.650Z,26.82
2023-03-21T10:37:18.335Z,26.74
2023-03-21T10:39:49.878Z,25.76
2023-03-21T10:42:25.074Z,27.09
2023-03-21T10:44:53.582Z,25.48
2023-03-21T10:47:28.946Z,24.94
2023-03-21T10:50:07.400Z,25.23
2023-03-21T10:52:34.777Z,24.22
2023-03-21T10:55:32.291Z,24.15
2023-03-21T10:58:10.975Z,26.14
2023-03-21T11:00:40.141Z,25.12
2023-03-21T11:03:07.691Z,24.95
2023-03-21T11:05:34.927Z,26.69
2023-03-21T11:08:12.111Z,25.48
2023-03-21T11:11:00.116Z,25.28
2023-03-21T11:13:33.105Z,25.84
2023-03-21T11:16:07.328Z,25.92
2023-03-21T11:18:34.256Z,26.02
2023-03-21T11:21:05.584Z,26.22
2023-03-21T11:23:34.015Z,27.40
2023-03-21T11:26:01.352Z,26.84
2023-03-21T11:28:34.046Z,25.81
2023-03-21T11:31:01.908Z,26.62
2023-03-21T11:33:32.992Z,26.01
2023-03-21T11:36:00.480Z,26.87
2023-03-21T11:38:30.804Z,26.74
2023-03-21T11:40:59.405Z,27.58
2023-03-21T11:43:35.499Z,26.92
2023-03-21T11:46:05.504Z,27.38
2023-03-21T11:48:35.635Z,27.94
2023-03-21T11:51:23.205Z,27.69
2023-03-21T11:54:01.279Z,28.77
2023-03-21T11:56:42.655Z,28.94
2023-03-21T11:59:24.525Z,29.68
2023-03-21T12:02:28.997Z,28.69
2023-03-21T12:05:08.076Z,29.03
2023-03-21T12:07:47.927Z,30.32
2023-03-21T12:10:36.360Z,29.68
2023-03-21T12:13:02.947Z,29.18
2023-03-21T12:15:38.768Z,31.00
2023-03-21T12:18:20.625Z,30.20
2023-03-21T12:20:55.637Z,30.99
2023-03-21T12:23:50.713Z,30.86
2023-03-21T12:26:24.501Z,30.48
2023-03-21T12:29:36.418Z,31.36
2023-03-21T12:32:09.232Z,31.24
2023-03-21T12:35:05.357Z,30.80
2023-03-21T12:37:52.077Z,29.57
2023-03-21T12:40:44.167Z,29.01
2023-03-21T12:43:24.730Z,28.48
2023-03-21T12:45:54.013Z,30.51
2023-03-21T12:48:23.834Z,31.39
2023-03-21T12:50:51.343Z,30.83
2023-03-21T12:53:27.172Z,32.82
2023-03-21T12:55:55.048Z,31.12
2023-03-21T12:58:24.421Z,31.87
2023-03-21T13:00:58.568Z,32.39
2023-03-21T13:03:39.290Z,31.75
2023-03-21T13:06:07.016Z,32.36
2023-03-21T13:08:44.254Z,31.56
2023-03-21T13:11:13.452Z,30.84
2023-03-21T13:13:59.441Z,29.12
2023-03-21T13:16:39.809Z,28.49
2023-03-21T13:19:20.891Z,29.87
2023-03-21T13:21:55.039Z,29.35
2023-03-21T13:24:49.616Z,30.13
2023-03-21T13:27:36.973Z,30.85
2023-03-21T13:30:14.314Z,30.06
2023-03-21T13:32:48.855Z,30.18
2023-03-21T13:35:33.101Z,30.90
2023-03-21T13:38:15.008Z,30.21
2023-03-21T13:40:45.131Z,30.78
2023-03-21T13:43:39.738Z,30.07
2023-03-21T13:46:08.684Z,31.14
2023-03-21T13:48:49.365Z,31.21
2023-03-21T13:51:46.761Z,31.91
2023-03-21T13:54:36.304Z,31.59
2023-03-21T13:57:05.629Z,31.76
2023-03-21T13:59:38.764Z,31.30
2023-03-21T14:02:24.035Z,32.16
2023-03-21T14:05:06.582Z,31.67
2023-03-21T14:07:44.151Z,31.63
2023-03-21T14:10:30.799Z,32.31
2023-03-21T14:12:57.312Z,31.28
2023-03-21T14:15:25.021Z,31.74
2023-03-21T14:18:06.379Z,31.96
2023-03-21T14:20:43.644Z,32.08
2023-03-21T14:23:17.302Z,32.18
2023-03-21T14:25:47.747Z,31.52
2023-03-21T14:28:29.622Z,31.98
2023-03-21T14:31:00.341Z,33.17
2023-03-21T14:33:27.360Z,35.29
2023-03-21T14:35:57.725Z,36.41
2023-03-21T14:38:26.595Z,37.24
2023-03-21T14:40:55.038Z,38.14
2023-03-21T14:43:22.762Z,37.90
2023-03-21T14:45:54.724Z,37.95
2023-03-21T14:48:22.106Z,38.35
2023-03-21T14:50:54.013Z,38.45
2023-03-21T14:53:23.255Z,39.52
2023-03-21T14:56:14.694Z,38.53
2023-03-21T14:58:42.110Z,37.94
2023-03-21T15:01:14.109Z,37.78
2023-03-21T15:03:40.840Z,37.68
2023-03-21T15:06:13.145Z,37.56
2023-03-21T15:08:39.804Z,37.42
2023-03-21T15:11:08.731Z,37.07
2023-03-21T15:13:47.260Z,36.84
2023-03-21T15:16:16.729Z,37.36
2023-03-21T15:18:43.452Z,37.41
2023-03-21T15:21:22.271Z,37.01
2023-03-21T15:23:51.315Z,36.86
2023-03-21T15:26:21.057Z,37.01
2023-03-21T15:28:49.363Z,37.20
2023-03-21T15:31:23.266Z,37.55
2023-03-21T15:33:51.539Z,38.04
2023-03-21T15:36:22.820Z,38.20
2023-03-21T15:38:49.546Z,38.13
2023-03-21T15:41:17.248Z,38.80
2023-03-21T15:43:43.969Z,39.22
2023-03-21T15:46:36.214Z,39.72
2023-03-21T15:49:14.820Z,40.69
2023-03-21T15:51:42.481Z,42.32
2023-03-21T15:54:17.237Z,44.35
2023-03-21T15:56:45.991Z,45.12
2023-03-21T15:59:14.495Z,45.87
2023-03-21T16:01:41.035Z,46.05
2023-03-21T16:04:11.170Z,46.83
2023-03-21T16:06:38.397Z,47.21
2023-03-21T16:09:14.284Z,47.56
2023-03-21T16:11:42.357Z,47.81
2023-03-21T16:14:10.646Z,47.86
2023-03-21T16:16:37.361Z,46.33
2023-03-21T16:19:04.217Z,46.13
2023-03-21T16:21:31.512Z,46.33
2023-03-21T16:23:58.358Z,46.65
2023-03-21T16:26:30.424Z,46.27
2023-03-21T16:28:57.707Z,46.44
2023-03-21T16:31:26.173Z,45.99
2023-03-21T16:33:52.789Z,46.42
2023-03-21T16:36:27.255Z,45.91
2023-03-21T16:38:54.291Z,45.68
2023-03-21T16:41:21.933Z,45.51
2023-03-21T16:43:48.740Z,45.20
2023-03-21T16:46:16.842Z,45.52
2023-03-21T16:48:44.594Z,45.71
2023-03-21T16:51:15.462Z,45.72
2023-03-21T16:53:43.034Z,46.99
2023-03-21T16:56:20.906Z,47.71
2023-03-21T16:58:47.656Z,48.81
2023-03-21T17:01:15.734Z,50.07
2023-03-21T17:03:43.026Z,50.39
2023-03-21T17:06:13.699Z,50.48
2023-03-21T17:08:40.471Z,50.38
2023-03-21T17:11:12.734Z,50.60
2023-03-21T17:13:39.396Z,50.57
2023-03-21T17:16:06.631Z,50.89
2023-03-21T17:18:33.482Z,51.37
2023-03-21T17:21:00.131Z,51.77
2023-03-21T17:23:27.182Z,52.27
2023-03-21T17:25:53.843Z,52.42
2023-03-21T17:28:20.593Z,52.48
2023-03-21T17:30:47.347Z,52.50
2023-03-21T17:33:15.425Z,52.48
2023-03-21T17:35:42.112Z,52.89
2023-03-21T17:38:16.881Z,53.19
2023-03-21T17:40:43.553Z,53.28
2023-03-21T17:43:16.011Z,53.17
2023-03-21T17:45:42.782Z,53.06
2023-03-21T17:48:09.892Z,53.10
2023-03-21T17:50:37.653Z,52.85
2023-03-21T17:53:04.925Z,52.52
2023-03-21T17:55:31.642Z,52.53
2023-03-21T17:57:58.388Z,52.69
2023-03-21T18:00:29.365Z,52.98
2023-03-21T18:02:56.350Z,53.08
2023-03-21T18:05:23.341Z,53.38
2023-03-21T18:08:10.959Z,53.65
2023-03-21T18:10:38.486Z,54.44
2023-03-21T18:13:05.338Z,54.37
2023-03-21T18:15:32.110Z,54.35
2023-03-21T18:17:58.891Z,54.19
2023-03-21T18:20:44.649Z,54.46
2023-03-21T18:23:14.361Z,54.83
2023-03-21T18:25:41.948Z,54.54
2023-03-21T18:28:11.910Z,54.60
2023-03-21T18:30:56.982Z,55.17
2023-03-21T18:33:27.401Z,55.27
2023-03-21T18:35:58.982Z,54.99
2023-03-21T18:38:26.517Z,54.39
2023-03-21T18:40:53.259Z,54.14
2023-03-21T18:46:07.366Z,54.79
2023-03-21T18:48:34.475Z,54.86
2023-03-21T18:51:02.338Z,55.14
2023-03-21T18:53:29.934Z,54.99
2023-03-21T18:55:57.560Z,55.51
2023-03-21T18:58:24.847Z,55.33
2023-03-21T19:00:53.463Z,55.42
2023-03-21T19:03:34.313Z,56.01
2023-03-21T19:06:04.184Z,56.20
2023-03-21T19:08:31.208Z,56.40
2023-03-21T19:11:01.422Z,55.55
2023-03-21T19:13:30.147Z,55.44
2023-03-21T19:15:56.779Z,56.32
2023-03-21T19:18:41.601Z,56.93
2023-03-21T19:21:10.131Z,57.17
2023-03-21T19:24:07.895Z,57.54
2023-03-21T19:26:24.737Z,57.96
2023-03-21T19:28:51.440Z,57.81
2023-03-21T19:31:19.083Z,57.54
2023-03-21T19:33:46.234Z,58.83
2023-03-21T19:36:21.155Z,59.12
2023-03-21T19:38:49.163Z,59.32
2023-03-21T19:41:16.396Z,59.21
2023-03-21T19:43:53.141Z,59.25
2023-03-21T19:46:23.220Z,59.30
2023-03-21T19:48:50.299Z,59.69
2023-03-21T19:51:33.176Z,59.69
2023-03-21T19:54:00.314Z,59.61
2023-03-21T19:56:27.947Z,59.72
2023-03-21T19:58:57.854Z,59.52
2023-03-21T20:01:24.935Z,59.65
2023-03-21T20:03:52.402Z,59.65
2023-03-21T20:06:19.388Z,59.25
2023-03-21T20:11:33.304Z,60.09
2023-03-21T20:14:01.989Z,59.55
2023-03-21T20:16:34.799Z,59.51
2023-03-21T20:19:03.444Z,59.71
2023-03-21T20:21:36.595Z,59.75
2023-03-21T20:24:09.153Z,59.91
2023-03-21T20:26:37.465Z,60.19
2023-03-21T20:29:43.679Z,60.69
2023-03-21T20:31:53.265Z,61.10
2023-03-21T20:34:21.180Z,61.07
2023-03-21T20:36:48.383Z,60.78
2023-03-21T20:39:15.606Z,60.71
2023-03-21T20:41:42.364Z,60.63
2023-03-21T20:46:56.829Z,60.70
2023-03-21T20:49:24.424Z,61.02
2023-03-21T20:52:47.847Z,61.36
2023-03-21T20:54:38.060Z,61.38
2023-03-21T20:57:05.150Z,61.54
2023-03-21T20:59:31.901Z,61.55
2023-03-21T21:01:58.855Z,61.61
2023-03-21T21:04:46.709Z,61.23
2023-03-21T21:07:17.170Z,61.25
2023-03-21T21:09:44.695Z,61.72
2023-03-21T21:12:12.078Z,61.24
2023-03-21T21:14:39.062Z,60.66
2023-03-21T21:17:23.773Z,60.19
2023-03-21T21:19:52.730Z,60.17
2023-03-21T21:22:19.326Z,60.31
2023-03-21T21:24:45.992Z,60.49
2023-03-21T21:27:12.648Z,60.84
2023-03-21T21:29:39.325Z,60.80
2023-03-21T21:32:06.002Z,60.80
2023-03-21T21:34:32.656Z,60.70
2023-03-21T21:36:59.404Z,61.19
2023-03-21T21:39:27.584Z,61.66
2023-03-21T21:41:54.321Z,61.55
2023-03-21T21:44:21.220Z,61.42
2023-03-21T21:46:47.972Z,61.60
2023-03-21T21:49:14.734Z,61.45
2023-03-21T21:51:41.960Z,60.92
2023-03-21T21:54:08.792Z,60.65
2023-03-21T21:56:37.834Z,61.10
2023-03-21T21:59:05.490Z,61.19
2023-03-21T22:01:34.830Z,60.87
2023-03-21T22:04:06.565Z,61.24
2023-03-21T22:06:36.282Z,61.63
2023-03-21T22:09:05.567Z,61.10
2023-03-21T22:11:32.238Z,61.14
2023-03-21T22:13:58.866Z,61.27
2023-03-21T22:16:25.596Z,61.22
2023-03-21T22:18:52.394Z,61.35
2023-03-21T22:21:19.070Z,60.61
2023-03-21T22:23:45.796Z,60.66
2023-03-21T22:26:12.522Z,61.25
2023-03-21T22:28:42.196Z,61.86
2023-03-21T22:31:10.932Z,62.09
2023-03-21T22:33:37.572Z,62.23
2023-03-21T22:36:04.406Z,62.37
2023-03-21T22:38:31.019Z,62.15
2023-03-21T22:40:58.445Z,62.44
2023-03-21T22:43:25.471Z,62.41
2023-03-21T22:45:52.610Z,62.85
2023-03-21T22:48:19.629Z,63.01
2023-03-21T22:50:46.367Z,63.29
2023-03-21T22:53:13.055Z,63.18
2023-03-21T22:55:39.825Z,63.25
2023-03-21T22:58:06.475Z,63.71
2023-03-21T23:00:33.258Z,63.52
2023-03-21T23:03:00.194Z,63.00
2023-03-21T23:05:26.838Z,64.12
2023-03-21T23:07:53.533Z,63.87
2023-03-21T23:10:20.302Z,63.22
2023-03-21T23:12:47.061Z,63.71
2023-03-21T23:15:13.696Z,63.13
2023-03-21T23:17:41.041Z,63.16
2023-03-21T23:20:08.758Z,63.71
2023-03-21T23:22:35.569Z,63.90
2023-03-21T23:25:02.562Z,63.94
2023-03-21T23:27:29.304Z,63.40
2023-03-21T23:29:56.721Z,63.11
2023-03-21T23:32:23.717Z,62.88
2023-03-21T23:34:50.336Z,62.89
2023-03-21T23:37:16.991Z,62.62
2023-03-21T23:39:45.247Z,62.70
2023-03-21T23:42:12.036Z,62.78
2023-03-21T23:44:38.666Z,62.81
2023-03-21T23:47:05.463Z,62.42
2023-03-21T23:49:33.828Z,62.29
2023-03-21T23:52:00.748Z,63.02
2023-03-21T23:54:27.440Z,62.91
2023-03-21T23:56:54.082Z,62.80
2023-03-21T23:59:20.723Z,62.48
